Time;durP1;ratioP1;P1;durP2;ratioP2;P2;SDS_P1;SDS_P2;PMS_P1;PMS_P2;Temp;Humidity;BMP_temperature;BMP_pressure;BME280_temperature;BME280_humidity;BME280_pressure;Samples;Min_cycle;Max_cycle;Signal;HPM_P1;HPM_P2
2022/01/10 00:00:11;;;;;;;14.70;6.72;;;;;;;3.75;78.84;98984.63;341871;28;1174;-79
2022/01/10 00:00:23;;;;;;;13.23;7.35;;;;;;;3.59;79.67;98984.84;341211;28;1158;-78
2022/01/10 00:00:39;;;;;;;13.57;7.55;;;;;;;3.56;79.62;98982.31;341260;28;1740;-78
2022/01/10 00:00:54;;;;;;;14.00;7.03;;;;;;;3.58;79.64;98988.28;341239;28;1601;-78
2022/01/10 00:01:08;;;;;;;11.45;6.45;;;;;;;3.62;79.62;98980.53;341324;29;853;-79
2022/01/10 00:01:22;;;;;;;9.77;6.72;;;;;;;3.68;79.06;98988.13;340705;29;1162;-78
2022/01/10 00:01:37;;;;;;;12.95;7.65;;;;;;;3.71;78.86;98985.53;340203;28;1777;-78
2022/01/10 00:01:52;;;;;;;15.35;7.47;;;;;;;3.72;78.51;98989.78;340907;29;1294;-79
2022/01/10 00:02:06;;;;;;;14.20;6.65;;;;;;;3.73;78.21;98988.94;340929;28;1330;-79
2022/01/10 00:02:19;;;;;;;13.65;6.72;;;;;;;3.77;78.23;98988.00;342439;28;1342;-78
2022/01/10 00:02:31;;;;;;;13.85;7.00;;;;;;;3.79;77.72;98986.25;342423;28;1079;-78
2022/01/10 00:02:45;;;;;;;11.30;6.85;;;;;;;3.76;77.63;98987.16;340561;29;1854;-78
2022/01/10 00:02:59;;;;;;;13.10;7.00;;;;;;;3.75;77.60;98985.44;341080;28;1212;-78
2022/01/10 00:03:11;;;;;;;15.63;6.90;;;;;;;3.71;77.81;98988.09;340547;29;1545;-78
2022/01/10 00:03:24;;;;;;;14.40;6.97;;;;;;;3.74;77.99;98986.34;340742;29;1075;-78
2022/01/10 00:03:36;;;;;;;13.95;7.05;;;;;;;3.76;77.72;98991.44;341642;28;1075;-78
2022/01/10 00:03:48;;;;;;;13.50;7.53;;;;;;;3.78;77.60;98985.41;341931;28;1190;-78
2022/01/10 00:04:00;;;;;;;13.30;7.03;;;;;;;3.75;77.76;98992.31;342134;28;1795;-78
2022/01/10 00:04:12;;;;;;;12.85;6.82;;;;;;;3.72;77.45;98988.09;342150;28;1977;-78
2022/01/10 00:04:24;;;;;;;11.60;6.68;;;;;;;3.75;77.46;98989.75;341851;28;1301;-78
2022/01/10 00:04:36;;;;;;;12.60;7.07;;;;;;;3.73;77.33;98982.06;342153;28;1184;-78
2022/01/10 00:04:48;;;;;;;13.45;7.25;;;;;;;3.63;77.21;98995.09;342183;28;1063;-78
2022/01/10 00:05:00;;;;;;;13.77;7.30;;;;;;;3.63;77.48;98979.66;341867;28;1490;-78
2022/01/10 00:05:13;;;;;;;14.63;7.43;;;;;;;3.64;77.31;98986.47;342247;28;1174;-78
2022/01/10 00:05:25;;;;;;;12.70;6.93;;;;;;;3.64;77.49;98986.47;342394;28;957;-78
2022/01/10 00:05:37;;;;;;;13.10;6.65;;;;;;;3.66;78.02;98987.31;343115;28;1197;-78
2022/01/10 00:05:49;;;;;;;12.73;6.95;;;;;;;3.69;77.81;98988.13;342485;28;915;-78
2022/01/10 00:06:01;;;;;;;13.85;7.18;;;;;;;3.73;77.63;98988.94;340621;28;1348;-78
2022/01/10 00:06:13;;;;;;;12.90;7.15;;;;;;;3.76;77.94;98991.44;340799;29;1197;-78
2022/01/10 00:06:25;;;;;;;12.52;6.90;;;;;;;3.75;77.96;98984.63;341731;28;1502;-78
2022/01/10 00:06:37;;;;;;;12.80;6.60;;;;;;;3.78;78.16;98989.69;341204;29;1162;-78
2022/01/10 00:06:49;;;;;;;13.65;6.70;;;;;;;3.81;78.16;98994.78;340887;29;1067;-78
2022/01/10 00:07:01;;;;;;;13.02;6.70;;;;;;;3.86;78.44;98987.84;340016;29;1159;-78
2022/01/10 00:07:19;;;;;;;12.18;6.93;;;;;;;3.84;78.28;98994.72;339546;29;1295;-78
2022/01/10 00:07:31;;;;;;;13.20;7.13;;;;;;;3.80;78.44;98985.38;338410;29;1088;-78
2022/01/10 00:07:44;;;;;;;12.70;7.07;;;;;;;3.78;78.69;98990.56;337841;29;1492;-78
2022/01/10 00:07:56;;;;;;;12.50;7.18;;;;;;;3.75;78.87;98984.63;338992;29;1510;-78
2022/01/10 00:08:08;;;;;;;13.18;7.47;;;;;;;3.77;78.71;98990.56;339815;29;1489;-78
2022/01/10 00:08:20;;;;;;;13.52;7.50;;;;;;;3.80;78.45;98993.09;340595;29;1914;-79
2022/01/10 00:08:33;;;;;;;12.02;7.20;;;;;;;3.82;78.73;98991.34;341331;29;758;-78
2022/01/10 00:08:45;;;;;;;11.07;6.90;;;;;;;3.82;78.76;98986.19;342186;28;1273;-78
2022/01/10 00:08:57;;;;;;;12.02;6.95;;;;;;;3.85;78.50;98991.31;342067;28;1247;-78
2022/01/10 00:09:09;;;;;;;14.52;7.30;;;;;;;3.86;78.59;98990.41;341041;29;1048;-79
2022/01/10 00:09:21;;;;;;;15.20;8.18;;;;;;;3.89;78.94;98995.53;341171;29;1240;-79
2022/01/10 00:09:33;;;;;;;14.57;7.65;;;;;;;3.86;78.99;98992.16;341069;29;1270;-78
2022/01/10 00:09:45;;;;;;;14.27;7.13;;;;;;;3.83;79.06;98992.22;340574;29;1644;-79
2022/01/10 00:09:57;;;;;;;14.27;6.47;;;;;;;3.80;79.18;98999.09;340939;28;1241;-79
2022/01/10 00:10:10;;;;;;;14.05;7.20;;;;;;;3.84;79.65;98994.72;340442;29;1674;-78
2022/01/10 00:10:22;;;;;;;14.30;7.68;;;;;;;3.85;79.14;98996.44;340697;29;1337;-78
2022/01/10 00:10:35;;;;;;;12.85;7.70;;;;;;;3.87;78.97;98983.56;340840;29;1116;-78
2022/01/10 00:10:47;;;;;;;13.88;8.05;;;;;;;3.84;79.20;98994.72;340824;29;1278;-78
2022/01/10 00:10:59;;;;;;;14.23;7.90;;;;;;;3.77;79.14;98998.28;341190;28;1236;-78
2022/01/10 00:11:11;;;;;;;16.33;7.70;;;;;;;3.76;79.31;98996.56;341482;28;1071;-78
2022/01/10 00:11:23;;;;;;;16.02;7.68;;;;;;;3.73;79.33;98997.47;340572;29;1678;-78
2022/01/10 00:11:36;;;;;;;17.02;7.90;;;;;;;3.68;79.57;98993.28;340220;29;970;-78
2022/01/10 00:11:48;;;;;;;14.25;7.68;;;;;;;3.70;79.41;98994.09;341336;28;1507;-78
2022/01/10 00:12:00;;;;;;;13.60;7.72;;;;;;;3.71;79.34;98994.09;342090;28;1215;-79
2022/01/10 00:12:12;;;;;;;14.23;8.00;;;;;;;3.72;79.88;98995.78;342405;28;1032;-78
2022/01/10 00:12:29;;;;;;;14.07;7.90;;;;;;;3.66;79.21;98995.84;341962;28;1066;-78
2022/01/10 00:12:41;;;;;;;14.43;7.57;;;;;;;3.66;79.67;98997.59;340403;28;3211;-78
2022/01/10 00:12:53;;;;;;;15.77;7.75;;;;;;;3.63;79.56;98995.94;341145;28;2937;-78
2022/01/10 00:13:05;;;;;;;14.65;8.02;;;;;;;3.62;79.68;98994.22;341727;28;1618;-78
2022/01/10 00:13:19;;;;;;;16.15;8.05;;;;;;;3.63;79.61;98995.94;341804;28;2586;-78
2022/01/10 00:13:31;;;;;;;13.45;7.63;;;;;;;3.64;79.93;99001.91;341145;28;1911;-78
2022/01/10 00:13:43;;;;;;;14.20;7.63;;;;;;;3.62;79.37;98995.94;342569;28;1064;-79
2022/01/10 00:13:55;;;;;;;14.75;8.13;;;;;;;3.60;79.92;99001.97;342562;28;1321;-79
2022/01/10 00:14:07;;;;;;;14.12;8.24;;;;;;;3.53;79.77;99000.34;341445;28;1396;-78
2022/01/10 00:14:19;;;;;;;13.07;8.15;;;;;;;3.49;80.12;98998.69;341082;28;1112;-78
2022/01/10 00:14:31;;;;;;;11.38;7.60;;;;;;;3.49;80.28;98998.69;341056;28;1063;-79
2022/01/10 00:14:43;;;;;;;11.93;7.60;;;;;;;3.46;80.14;99003.03;341234;28;2456;-78
2022/01/10 00:14:56;;;;;;;16.00;7.88;;;;;;;3.52;80.08;98993.53;342486;28;1559;-78
2022/01/10 00:15:09;;;;;;;18.75;8.20;;;;;;;3.55;79.96;99000.34;342465;28;1342;-78
2022/01/10 00:15:21;;;;;;;15.35;7.75;;;;;;;3.58;79.64;99001.13;342018;28;1519;-78
2022/01/10 00:15:33;;;;;;;13.60;7.65;;;;;;;3.60;79.96;98999.41;341401;28;998;-78
2022/01/10 00:15:46;;;;;;;15.32;7.82;;;;;;;3.64;79.71;98991.63;341917;28;1677;-79
2022/01/10 00:15:58;;;;;;;14.75;7.97;;;;;;;3.64;79.79;98996.75;342498;28;1193;-78
2022/01/10 00:16:10;;;;;;;14.40;7.60;;;;;;;3.68;79.62;98993.28;342339;28;1140;-78
2022/01/10 00:16:23;;;;;;;13.93;7.47;;;;;;;3.69;79.39;98995.81;342252;28;1071;-78
2022/01/10 00:16:35;;;;;;;15.18;8.00;;;;;;;3.71;78.90;98998.38;342205;28;1534;-78
2022/01/10 00:16:47;;;;;;;13.40;7.65;;;;;;;3.75;78.77;99000.03;342321;28;1162;-78
2022/01/10 00:17:00;;;;;;;16.25;7.38;;;;;;;3.76;78.92;99001.72;342054;28;1376;-79
2022/01/10 00:17:12;;;;;;;16.08;7.50;;;;;;;3.78;78.57;98995.69;341947;28;1231;-78
2022/01/10 00:17:24;;;;;;;13.70;7.20;;;;;;;3.82;78.39;98999.03;340937;29;1253;-78
2022/01/10 00:17:38;;;;;;;12.32;7.20;;;;;;;3.84;77.54;98983.59;342364;28;1249;-78
2022/01/10 00:17:55;;;;;;;12.50;7.03;;;;;;;3.82;77.09;98991.34;342230;28;1073;-78
2022/01/10 00:18:08;;;;;;;13.63;6.97;;;;;;;3.74;77.15;98998.31;341294;28;1535;-78
2022/01/10 00:18:19;;;;;;;14.93;7.65;;;;;;;3.72;77.02;98997.50;342581;28;1127;-78
2022/01/10 00:18:32;;;;;;;16.10;8.20;;;;;;;3.72;77.38;98994.94;342514;28;1144;-78
2022/01/10 00:18:44;;;;;;;15.27;7.88;;;;;;;3.71;76.88;99004.38;342040;28;2092;-79
2022/01/10 00:18:55;;;;;;;13.20;6.95;;;;;;;3.71;77.46;98999.22;342092;28;1521;-78
2022/01/10 00:19:07;;;;;;;12.38;6.80;;;;;;;3.73;77.48;99002.63;342061;28;1788;-78
2022/01/10 00:19:20;;;;;;;11.20;6.45;;;;;;;3.71;77.83;98998.38;341083;28;1052;-78
2022/01/10 00:19:32;;;;;;;11.85;6.38;;;;;;;3.68;78.43;98998.41;341274;28;999;-78
2022/01/10 00:19:44;;;;;;;12.93;6.88;;;;;;;3.66;78.84;99000.16;341099;28;1065;-78
2022/01/10 00:19:56;;;;;;;12.75;7.40;;;;;;;3.65;78.96;99006.19;340986;28;1038;-79
2022/01/10 00:20:11;;;;;;;12.70;7.28;;;;;;;3.61;79.57;99002.81;342567;28;1136;-78
2022/01/10 00:20:23;;;;;;;12.65;6.70;;;;;;;3.52;79.74;99000.34;341959;28;1174;-78
2022/01/10 00:20:35;;;;;;;11.73;6.57;;;;;;;3.53;80.05;98999.50;342440;28;1116;-79
2022/01/10 00:20:47;;;;;;;11.82;6.88;;;;;;;3.59;80.39;99002.81;342678;28;1154;-78
2022/01/10 00:20:59;;;;;;;11.70;7.13;;;;;;;3.66;79.67;99000.16;342008;28;1671;-78
2022/01/10 00:21:11;;;;;;;11.45;7.20;;;;;;;3.66;79.87;99006.13;342267;28;1064;-78
2022/01/10 00:21:23;;;;;;;12.70;6.88;;;;;;;3.64;79.81;99002.75;342539;28;1071;-78
2022/01/10 00:21:35;;;;;;;13.05;6.95;;;;;;;3.66;79.91;99000.16;342390;28;1091;-78
2022/01/10 00:21:47;;;;;;;13.43;7.25;;;;;;;3.70;79.43;98992.41;342326;28;1083;-78
2022/01/10 00:21:59;;;;;;;12.80;7.32;;;;;;;3.70;79.54;99001.81;342193;28;1089;-78
2022/01/10 00:22:12;;;;;;;12.10;6.80;;;;;;;3.73;79.67;98997.47;341847;28;1576;-78
2022/01/10 00:22:25;;;;;;;10.85;6.70;;;;;;;3.76;79.63;99004.28;341434;28;1313;-78
2022/01/10 00:22:40;;;;;;;11.05;7.00;;;;;;;3.81;79.55;99010.22;341753;28;1583;-78
2022/01/10 00:22:52;;;;;;;11.23;7.07;;;;;;;3.86;79.44;99005.84;342375;28;1712;-78
2022/01/10 00:23:08;;;;;;;10.70;6.70;;;;;;;3.87;79.51;99007.56;342046;28;1196;-78
2022/01/10 00:23:22;;;;;;;11.05;6.28;;;;;;;3.91;79.31;99001.47;342234;28;1067;-78
2022/01/10 00:23:35;;;;;;;12.60;7.00;;;;;;;3.97;79.32;99000.53;342455;28;1096;-79
2022/01/10 00:23:47;;;;;;;13.13;7.65;;;;;;;3.97;79.02;99006.53;342763;28;1018;-78
2022/01/10 00:23:59;;;;;;;12.85;7.60;;;;;;;4.02;78.90;98995.31;342718;28;1198;-79
2022/01/10 00:24:11;;;;;;;11.32;6.80;;;;;;;3.97;79.01;98996.25;342507;28;1076;-78
2022/01/10 00:24:23;;;;;;;10.68;6.50;;;;;;;3.96;78.35;98999.69;342152;28;1180;-78
2022/01/10 00:24:35;;;;;;;11.32;6.80;;;;;;;3.96;78.36;98996.25;342113;28;1624;-78
2022/01/10 00:24:47;;;;;;;12.38;7.10;;;;;;;3.97;78.57;99001.38;342087;28;1809;-79
2022/01/10 00:24:59;;;;;;;12.65;7.15;;;;;;;3.97;78.51;99006.53;342051;28;1343;-79
2022/01/10 00:25:18;;;;;;;13.18;7.22;;;;;;;4.00;78.69;99001.34;342481;28;1009;-78
2022/01/10 00:25:30;;;;;;;13.98;6.93;;;;;;;4.03;78.20;98997.03;340938;29;1158;-79
2022/01/10 00:25:42;;;;;;;13.25;6.85;;;;;;;3.97;78.36;99001.38;341033;29;1020;-78
2022/01/10 00:25:54;;;;;;;13.48;7.40;;;;;;;4.03;78.06;98997.03;340292;29;1480;-79
2022/01/10 00:26:06;;;;;;;11.30;7.32;;;;;;;4.02;78.26;98992.75;339887;29;1046;-78
2022/01/10 00:26:18;;;;;;;10.68;6.97;;;;;;;4.04;78.28;99001.28;339954;29;1308;-78
2022/01/10 00:26:30;;;;;;;10.50;6.70;;;;;;;4.02;78.32;98995.31;340914;29;1020;-78
2022/01/10 00:26:42;;;;;;;12.55;6.97;;;;;;;3.97;78.44;98998.81;341314;29;1862;-78
2022/01/10 00:26:54;;;;;;;14.55;7.10;;;;;;;3.98;78.33;99000.53;340909;29;1153;-78
2022/01/10 00:27:07;;;;;;;13.48;7.18;;;;;;;3.97;78.10;98997.97;340923;29;1192;-79
2022/01/10 00:27:19;;;;;;;12.32;7.32;;;;;;;3.93;78.48;98997.16;340771;29;1276;-79
2022/01/10 00:27:31;;;;;;;12.50;7.45;;;;;;;3.90;78.79;99004.91;340890;29;1016;-78
2022/01/10 00:27:44;;;;;;;11.23;6.93;;;;;;;3.89;78.63;99003.22;341152;28;1261;-78
2022/01/10 00:27:56;;;;;;;12.73;7.07;;;;;;;3.85;78.77;98996.44;342344;28;1139;-78
2022/01/10 00:28:08;;;;;;;16.33;7.85;;;;;;;3.86;78.68;99008.41;341511;28;1771;-78
2022/01/10 00:28:20;;;;;;;16.42;8.10;;;;;;;3.87;78.53;99009.28;342166;28;1810;-79
2022/01/10 00:28:32;;;;;;;16.70;7.80;;;;;;;3.86;78.64;98998.13;342511;28;1067;-78
2022/01/10 00:28:44;;;;;;;16.20;7.63;;;;;;;3.82;78.60;99001.63;341869;28;1508;-78
2022/01/10 00:28:56;;;;;;;14.45;7.82;;;;;;;3.86;78.41;98998.13;342404;28;1172;-78
2022/01/10 00:29:08;;;;;;;14.23;8.27;;;;;;;3.88;78.03;98998.94;342564;28;1306;-78
2022/01/10 00:29:20;;;;;;;13.13;7.78;;;;;;;3.90;78.15;99004.06;341993;28;1560;-78
2022/01/10 00:29:33;;;;;;;14.63;7.38;;;;;;;3.87;78.55;99006.72;342232;28;1516;-78
2022/01/10 00:29:45;;;;;;;16.40;7.50;;;;;;;3.84;78.22;99005.00;341081;28;1045;-79
2022/01/10 00:29:57;;;;;;;15.35;7.68;;;;;;;3.85;77.93;99006.72;341035;28;1271;-78
2022/01/10 00:30:10;;;;;;;14.70;8.02;;;;;;;3.87;78.16;99004.97;342338;28;1899;-78
2022/01/10 00:30:24;;;;;;;14.85;8.48;;;;;;;3.90;78.16;98994.63;342257;28;1015;-79
2022/01/10 00:30:36;;;;;;;14.82;8.57;;;;;;;3.89;77.81;99002.38;342375;28;1074;-78
2022/01/10 00:30:48;;;;;;;14.48;8.13;;;;;;;3.84;77.99;99001.59;342334;28;1043;-78
2022/01/10 00:31:00;;;;;;;15.00;7.97;;;;;;;3.87;78.05;99010.13;341793;28;2378;-78
2022/01/10 00:31:12;;;;;;;13.93;8.23;;;;;;;3.87;77.70;99010.13;342448;28;1158;-78
2022/01/10 00:31:24;;;;;;;15.48;8.85;;;;;;;3.90;77.83;99010.06;342356;28;1126;-78
2022/01/10 00:31:36;;;;;;;15.02;8.63;;;;;;;3.87;77.03;99004.97;342498;28;1054;-78
2022/01/10 00:31:48;;;;;;;14.93;7.65;;;;;;;3.88;77.06;99001.53;341531;28;1646;-78
2022/01/10 00:32:01;;;;;;;13.38;7.28;;;;;;;3.86;77.46;99003.25;341540;28;1615;-78
2022/01/10 00:32:13;;;;;;;14.23;7.60;;;;;;;3.90;77.26;99010.06;342519;28;1294;-79
2022/01/10 00:32:26;;;;;;;14.25;8.07;;;;;;;3.91;77.54;99011.78;342515;28;1339;-78
2022/01/10 00:32:39;;;;;;;15.63;7.78;;;;;;;3.92;77.73;99008.31;342677;28;1203;-78
2022/01/10 00:32:52;;;;;;;13.70;7.45;;;;;;;3.96;77.63;99004.84;342362;28;1022;-79
2022/01/10 00:33:04;;;;;;;12.50;7.30;;;;;;;3.99;77.56;99009.91;342406;28;1146;-78
2022/01/10 00:33:16;;;;;;;11.10;7.00;;;;;;;4.03;77.46;99000.44;342245;28;1713;-78
2022/01/10 00:33:28;;;;;;;11.73;7.00;;;;;;;4.06;77.55;99004.69;342319;28;1958;-78
2022/01/10 00:33:52;;;;;;;12.80;7.10;;;;;;;4.06;77.34;99004.69;342265;28;1811;-78
2022/01/10 00:34:04;;;;;;;10.00;6.50;;;;;;;4.03;77.82;99002.19;342273;28;1228;-79
2022/01/10 00:34:16;;;;;;;11.07;6.43;;;;;;;4.00;78.18;99001.34;342245;28;1201;-78
2022/01/10 00:34:28;;;;;;;11.35;6.25;;;;;;;3.99;78.40;99007.34;341165;29;1064;-78
2022/01/10 00:34:41;;;;;;;14.27;6.63;;;;;;;3.99;78.11;98998.78;341139;29;1011;-79
2022/01/10 00:34:53;;;;;;;13.93;7.10;;;;;;;4.03;78.34;99004.75;340527;29;1185;-78
2022/01/10 00:35:08;;;;;;;14.10;7.22;;;;;;;4.06;78.21;99004.69;340789;28;1327;-78
2022/01/10 00:35:20;;;;;;;12.25;7.20;;;;;;;4.08;78.25;99002.94;341037;29;1570;-78
2022/01/10 00:35:32;;;;;;;11.90;7.13;;;;;;;4.10;78.32;98998.59;341532;28;1325;-78
2022/01/10 00:35:45;;;;;;;11.30;6.72;;;;;;;4.12;77.98;98999.44;342202;28;1047;-78
2022/01/10 00:35:57;;;;;;;9.25;6.03;;;;;;;4.12;78.09;99002.00;342108;28;1196;-79
2022/01/10 00:36:09;;;;;;;9.93;6.13;;;;;;;4.16;77.80;99003.66;342384;28;1075;-78
2022/01/10 00:36:21;;;;;;;11.93;6.85;;;;;;;4.19;78.25;99001.88;342340;28;1016;-78
2022/01/10 00:36:33;;;;;;;12.57;6.85;;;;;;;4.20;77.83;99006.16;342205;28;1103;-78
2022/01/10 00:36:45;;;;;;;13.50;6.75;;;;;;;4.25;77.93;99000.94;341952;28;1245;-78
2022/01/10 00:36:57;;;;;;;14.07;6.63;;;;;;;4.22;77.69;99006.13;341970;28;1115;-78
2022/01/10 00:37:09;;;;;;;13.65;6.55;;;;;;;4.22;77.85;98998.38;342769;28;1188;-78
2022/01/10 00:37:21;;;;;;;13.43;6.65;;;;;;;4.24;77.61;99009.50;343770;28;927;-79
2022/01/10 00:37:34;;;;;;;12.40;6.57;;;;;;;4.28;77.88;98995.72;343579;28;1177;-78
2022/01/10 00:37:46;;;;;;;11.35;6.20;;;;;;;4.31;78.23;99000.81;343721;28;1090;-78
2022/01/10 00:37:58;;;;;;;12.43;5.95;;;;;;;4.33;77.78;99001.63;343509;28;1160;-78
2022/01/10 00:38:10;;;;;;;13.25;6.22;;;;;;;4.35;77.87;99007.59;342931;28;1596;-78
2022/01/10 00:38:22;;;;;;;12.32;6.53;;;;;;;4.38;77.68;99006.69;343699;28;1031;-78
2022/01/10 00:38:34;;;;;;;10.25;6.45;;;;;;;4.43;77.67;98998.88;343673;28;1354;-78
2022/01/10 00:38:46;;;;;;;11.07;6.70;;;;;;;4.41;77.22;99004.09;343044;28;1291;-79
2022/01/10 00:39:01;;;;;;;12.45;6.63;;;;;;;4.42;77.22;99002.34;341467;28;1258;-78
2022/01/10 00:39:15;;;;;;;13.25;6.30;;;;;;;4.44;77.35;99000.59;342469;28;1067;-78
2022/01/10 00:39:27;;;;;;;11.68;6.22;;;;;;;4.47;77.22;99000.56;342855;28;1206;-79
2022/01/10 00:39:39;;;;;;;11.90;6.57;;;;;;;4.50;77.14;98995.34;342149;28;1584;-78
2022/01/10 00:39:51;;;;;;;11.70;6.95;;;;;;;4.53;77.24;98995.28;342315;28;1487;-78
2022/01/10 00:40:04;;;;;;;12.82;7.50;;;;;;;4.53;76.85;99000.44;342469;28;1180;-78
2022/01/10 00:40:17;;;;;;;12.82;7.25;;;;;;;4.52;77.44;99001.31;341991;28;1517;-78
2022/01/10 00:40:29;;;;;;;12.23;6.78;;;;;;;4.54;77.02;99002.13;340841;28;1797;-79
2022/01/10 00:40:42;;;;;;;13.18;7.13;;;;;;;4.55;76.77;98998.69;342039;28;1050;-79
2022/01/10 00:40:54;;;;;;;15.07;7.32;;;;;;;4.55;77.10;98996.94;342059;28;1158;-78
2022/01/10 00:41:06;;;;;;;15.25;7.60;;;;;;;4.57;76.36;98999.50;343143;28;1093;-79
2022/01/10 00:41:18;;;;;;;14.02;7.15;;;;;;;4.57;76.33;99002.06;343525;28;1190;-78
2022/01/10 00:41:30;;;;;;;14.60;7.07;;;;;;;4.56;76.46;99005.50;343671;28;1904;-78
2022/01/10 00:41:44;;;;;;;14.32;7.15;;;;;;;4.58;76.48;99001.19;342815;28;1565;-79
2022/01/10 00:41:57;;;;;;;13.00;7.38;;;;;;;4.58;76.51;98998.59;342247;28;1109;-78
2022/01/10 00:42:09;;;;;;;12.55;7.22;;;;;;;4.60;76.69;99002.84;342493;28;1147;-79
2022/01/10 00:42:21;;;;;;;11.80;6.90;;;;;;;4.63;76.53;99007.09;342049;28;1723;-78
2022/01/10 00:42:33;;;;;;;11.63;7.05;;;;;;;4.62;76.69;99002.81;341594;28;1538;-78
2022/01/10 00:42:53;;;;;;;12.63;6.75;;;;;;;4.63;76.32;99004.53;342398;28;1136;-78
2022/01/10 00:43:05;;;;;;;11.88;6.65;;;;;;;4.67;76.48;99007.88;342289;28;1387;-78
2022/01/10 00:43:29;;;;;;;12.75;6.90;;;;;;;4.68;76.62;99010.44;342323;28;928;-79
2022/01/10 00:43:45;;;;;;;13.93;6.88;;;;;;;4.71;76.12;99005.25;342041;28;1357;-78
2022/01/10 00:44:04;;;;;;;13.55;7.50;;;;;;;4.72;76.32;99004.34;342002;28;1183;-78
2022/01/10 00:44:25;;;;;;;14.45;7.95;;;;;;;4.69;76.32;99004.41;342256;28;1023;-78
2022/01/10 00:44:44;;;;;;;15.25;8.38;;;;;;;4.68;76.40;99005.28;342575;28;1269;-78
2022/01/10 00:45:01;;;;;;;12.43;7.70;;;;;;;4.67;76.06;99008.75;341750;28;1344;-79
2022/01/10 00:45:17;;;;;;;14.23;7.35;;;;;;;4.66;75.99;99007.03;342267;28;1051;-78
2022/01/10 00:45:29;;;;;;;14.98;7.18;;;;;;;4.67;76.14;99005.31;341468;28;1579;-78
2022/01/10 00:45:41;;;;;;;13.77;7.35;;;;;;;4.68;76.43;99005.28;342546;28;1763;-78
2022/01/10 00:45:53;;;;;;;14.25;7.35;;;;;;;4.69;76.47;99007.00;342359;28;1239;-78
2022/01/10 00:46:06;;;;;;;14.18;7.00;;;;;;;4.69;75.87;99004.41;342126;28;1387;-78
2022/01/10 00:46:19;;;;;;;13.80;7.03;;;;;;;4.69;76.10;99001.84;342156;28;1023;-78
2022/01/10 00:46:31;;;;;;;12.75;7.47;;;;;;;4.71;76.43;99005.25;342343;28;1060;-78
2022/01/10 00:46:43;;;;;;;12.55;7.53;;;;;;;4.71;76.27;99005.25;341088;28;1194;-78
2022/01/10 00:46:55;;;;;;;13.85;7.72;;;;;;;4.73;76.17;99003.47;340440;28;1776;-78
2022/01/10 00:47:07;;;;;;;14.35;7.97;;;;;;;4.74;76.14;99004.31;340302;28;1610;-78
2022/01/10 00:47:19;;;;;;;13.90;7.82;;;;;;;4.72;75.69;99006.91;342372;28;1068;-78
2022/01/10 00:47:31;;;;;;;13.00;7.57;;;;;;;4.73;76.09;98998.34;341631;28;1513;-78
2022/01/10 00:47:46;;;;;;;14.57;8.00;;;;;;;4.73;75.92;99003.47;341134;29;1172;-78
2022/01/10 00:47:59;;;;;;;16.92;8.57;;;;;;;4.71;75.54;99005.25;341278;28;1225;-78
2022/01/10 00:48:11;;;;;;;16.48;8.57;;;;;;;4.69;75.74;99007.00;341123;29;1224;-79
2022/01/10 00:48:23;;;;;;;13.80;8.00;;;;;;;4.67;76.06;99006.16;342393;28;1163;-78
2022/01/10 00:48:35;;;;;;;12.43;7.38;;;;;;;4.69;75.23;99001.84;342259;28;1172;-78
2022/01/10 00:48:48;;;;;;;11.82;7.03;;;;;;;4.72;75.76;99003.50;343133;28;1054;-78
2022/01/10 00:49:00;;;;;;;12.55;6.88;;;;;;;4.71;76.27;99000.09;343007;28;1524;-78
2022/01/10 00:49:12;;;;;;;12.38;7.65;;;;;;;4.71;76.07;99010.38;343314;28;1532;-78
2022/01/10 00:49:24;;;;;;;12.30;8.23;;;;;;;4.71;75.95;99000.09;343564;28;1216;-79
2022/01/10 00:49:36;;;;;;;14.60;8.95;;;;;;;4.71;75.23;99001.78;343777;28;941;-78
2022/01/10 00:49:51;;;;;;;15.23;8.80;;;;;;;4.70;76.05;99008.66;343802;28;1164;-78
2022/01/10 00:50:03;;;;;;;12.63;7.93;;;;;;;4.69;75.46;99007.00;343141;28;1526;-79
2022/01/10 00:50:16;;;;;;;12.75;7.47;;;;;;;4.73;75.97;99008.63;342288;28;1189;-79
2022/01/10 00:50:29;;;;;;;13.75;7.18;;;;;;;4.75;75.92;99006.88;341472;28;1154;-79
2022/01/10 00:50:41;;;;;;;12.43;6.95;;;;;;;4.78;75.58;99011.09;342232;28;1665;-78
2022/01/10 00:50:53;;;;;;;12.60;6.78;;;;;;;4.78;75.34;99011.09;343219;28;1136;-79
2022/01/10 00:51:05;;;;;;;11.77;7.03;;;;;;;4.77;75.49;99005.13;343576;28;1296;-79
2022/01/10 00:51:18;;;;;;;13.23;7.72;;;;;;;4.75;75.41;99006.88;343726;28;1102;-78
2022/01/10 00:51:30;;;;;;;12.30;7.70;;;;;;;4.78;75.56;99005.97;343435;28;1164;-79
2022/01/10 00:51:42;;;;;;;11.63;7.18;;;;;;;4.80;76.00;99007.63;342403;28;1292;-79
2022/01/10 00:51:54;;;;;;;12.32;6.25;;;;;;;4.82;75.58;99006.75;341998;28;2000;-78
2022/01/10 00:52:06;;;;;;;12.00;6.15;;;;;;;4.83;75.63;99013.59;340955;29;1312;-78
2022/01/10 00:52:18;;;;;;;10.82;5.97;;;;;;;4.84;75.45;99010.97;340964;29;1080;-78
2022/01/10 00:52:30;;;;;;;11.18;6.55;;;;;;;4.87;75.39;99008.38;340852;29;1065;-78
2022/01/10 00:52:43;;;;;;;10.98;6.38;;;;;;;4.89;75.89;99013.47;340869;28;1617;-78
2022/01/10 00:52:56;;;;;;;9.82;5.90;;;;;;;4.90;75.74;99017.75;341652;28;1069;-78
2022/01/10 00:53:08;;;;;;;9.23;6.10;;;;;;;4.90;75.33;99012.59;340936;29;1087;-78
2022/01/10 00:53:20;;;;;;;10.10;6.65;;;;;;;4.92;75.22;99010.84;341211;28;1540;-78
2022/01/10 00:53:32;;;;;;;12.02;7.15;;;;;;;4.93;75.16;99015.09;340871;29;1162;-78
2022/01/10 00:53:44;;;;;;;12.02;6.97;;;;;;;4.95;75.18;99016.78;341143;28;1091;-78
2022/01/10 00:53:57;;;;;;;10.75;6.65;;;;;;;4.96;74.99;99012.47;342152;28;1192;-78
2022/01/10 00:54:10;;;;;;;11.32;6.07;;;;;;;4.97;75.17;99011.56;342336;28;1351;-78
2022/01/10 00:54:22;;;;;;;13.02;6.95;;;;;;;4.98;75.34;99013.28;341279;28;1670;-79
2022/01/10 00:54:34;;;;;;;12.38;7.07;;;;;;;5.01;75.17;99013.25;342154;28;1076;-78
2022/01/10 00:54:46;;;;;;;11.30;6.72;;;;;;;4.99;75.88;99013.25;342279;28;1032;-79
2022/01/10 00:55:07;;;;;;;10.35;6.93;;;;;;;5.00;75.00;99016.69;341618;28;1345;-78
2022/01/10 00:55:20;;;;;;;11.82;7.82;;;;;;;5.03;74.74;99020.91;342285;28;1069;-78
2022/01/10 00:55:32;;;;;;;11.93;7.35;;;;;;;5.02;74.83;99014.91;342098;28;1025;-79
2022/01/10 00:55:44;;;;;;;13.40;7.45;;;;;;;5.02;74.87;99012.34;342266;28;1058;-79
2022/01/10 00:55:57;;;;;;;15.60;7.72;;;;;;;5.00;74.97;99011.53;342361;28;1319;-79
2022/01/10 00:56:09;;;;;;;13.52;7.25;;;;;;;5.00;75.14;99016.69;342399;28;1053;-78
2022/01/10 00:56:21;;;;;;;11.93;6.80;;;;;;;5.00;74.90;99011.53;342114;28;1571;-78
2022/01/10 00:56:33;;;;;;;12.23;6.75;;;;;;;5.01;75.09;99018.41;341351;28;1499;-79
2022/01/10 00:56:46;;;;;;;12.30;6.78;;;;;;;5.03;75.42;99016.63;341516;28;1742;-78
2022/01/10 00:56:58;;;;;;;11.98;6.45;;;;;;;5.03;75.33;99008.91;342369;28;1089;-78
2022/01/10 00:57:10;;;;;;;11.43;6.32;;;;;;;5.05;75.19;99014.88;342459;28;1130;-79
2022/01/10 00:57:22;;;;;;;11.13;5.95;;;;;;;5.05;74.93;99019.16;341220;28;1192;-78
2022/01/10 00:57:34;;;;;;;11.05;5.95;;;;;;;5.04;75.03;99015.75;341490;28;1491;-79
2022/01/10 00:57:47;;;;;;;11.43;6.20;;;;;;;5.06;75.07;99015.72;342489;28;749;-79
2022/01/10 00:57:59;;;;;;;10.95;6.45;;;;;;;5.07;75.11;99013.13;341547;28;1675;-78
2022/01/10 00:58:11;;;;;;;12.13;6.70;;;;;;;5.06;74.98;99013.97;342032;28;1717;-78
2022/01/10 00:58:23;;;;;;;11.60;7.07;;;;;;;5.03;75.12;99018.34;340937;29;1131;-79
2022/01/10 00:58:36;;;;;;;11.65;7.25;;;;;;;5.05;74.50;99020.03;340893;28;1333;-78
2022/01/10 00:58:48;;;;;;;12.40;7.07;;;;;;;5.05;75.02;99020.03;342158;28;1400;-78
2022/01/10 00:59:00;;;;;;;13.68;7.15;;;;;;;5.04;74.58;99017.47;342270;28;1185;-79
2022/01/10 00:59:12;;;;;;;13.32;6.88;;;;;;;5.04;75.01;99018.31;342175;28;1213;-78
2022/01/10 00:59:24;;;;;;;13.57;6.72;;;;;;;5.06;74.67;99021.72;342210;28;1043;-78
2022/01/10 00:59:37;;;;;;;11.88;6.57;;;;;;;5.06;75.12;99026.84;342244;28;1059;-79
2022/01/10 00:59:49;;;;;;;10.63;6.35;;;;;;;5.06;74.66;99015.72;341809;28;1477;-79
2022/01/10 01:00:02;;;;;;;13.90;6.45;;;;;;;5.07;75.16;99018.28;342028;28;1545;-79
2022/01/10 01:00:18;;;;;;;16.00;6.80;;;;;;;5.06;74.76;99021.72;341875;28;1401;-78
2022/01/10 01:00:31;;;;;;;14.23;7.45;;;;;;;5.08;75.20;99021.69;341770;28;1550;-78
2022/01/10 01:00:43;;;;;;;14.40;7.82;;;;;;;5.06;74.70;99024.28;342004;28;1675;-78
2022/01/10 01:00:56;;;;;;;13.50;7.47;;;;;;;5.06;75.05;99031.16;342296;28;1103;-78
2022/01/10 01:01:09;;;;;;;13.30;6.78;;;;;;;5.08;74.44;99029.41;341395;28;1890;-78
2022/01/10 01:01:21;;;;;;;12.88;6.63;;;;;;;5.09;74.69;99021.66;342071;28;1490;-78
2022/01/10 01:01:33;;;;;;;12.63;6.70;;;;;;;5.10;74.24;99025.91;342633;28;733;-78